KGRB/GRB METAR and TAF weather

Enter ICAO airport designator
Station Type Date Time Source
KGRB METAR 2019/08/18 08:53 UTC NOAA

KGRB 180853Z AUTO 18007KT 3SM BR OVC003 21/20 A2980 RMK AO2 SLP089 T02060200 56015


Station Type Date Time Source
KGRB Decoded METAR 2019/08/18 08:53 UTC NOAA

Station name not available
Aug 18, 2019 - 04:53 AM EDT / 2019.08.18 0853 UTC
Wind: from the S (180 degrees) at 8 MPH (7 KT):0
Visibility: 3 mile(s):0
Sky conditions: overcast
Weather: mist
Temperature: 69.1 F (20.6 C)
Dew Point: 68.0 F (20.0 C)
Relative Humidity: 96%
Pressure (altimeter): 29.8 in. Hg (1009 hPa)
Pressure tendency: 0.04 inches (1.5 hPa) lower than three hours ago
ob: KGRB 180853Z AUTO 18007KT 3SM BR OVC003 21/20 A2980 RMK AO2 SLP089 T02060200 56015
cycle: 9

Station Type Date Time Source
KGRB TAF 2019/08/18 09:33 UTC NOAA

TAF
AMD KGRB 180830Z 1809/1906 16004KT 2SM BR OVC002
FM181100 20008KT 4SM SHRA BR SCT006 OVC060
FM181600 24011G18KT P6SM -SHRA SCT025 OVC045
TEMPO 1816/1820 3SM TSRA OVC025CB
FM182000 27015G27KT P6SM SCT060
FM190300 29004KT P6SM SKC

Example: see airport list